Time;durP1;ratioP1;P1;durP2;ratioP2;P2;SDS_P1;SDS_P2;PMS_P1;PMS_P2;Temp;Humidity;BMP_temperature;BMP_pressure;BME280_temperature;BME280_humidity;BME280_pressure;Samples;Min_cycle;Max_cycle;Signal;HPM_P1;HPM_P2
2021/01/11 00:01:44;;;;;;;116.93;25.77;;;-2.10;99.90;;;;;;5089816;28;20109;-69
2021/01/11 00:04:11;;;;;;;126.87;26.17;;;-2.10;99.90;;;;;;5089774;28;20056;-70
2021/01/11 00:06:40;;;;;;;202.67;32.70;;;-2.20;99.90;;;;;;5090267;28;20074;-69
2021/01/11 00:09:08;;;;;;;144.70;29.37;;;-2.20;99.90;;;;;;5089985;28;20097;-70
2021/01/11 00:11:35;;;;;;;96.80;23.47;;;-2.30;99.90;;;;;;5090152;28;20397;-69
2021/01/11 00:14:02;;;;;;;102.13;27.73;;;-2.30;99.90;;;;;;5090036;28;20139;-69
2021/01/11 00:16:29;;;;;;;146.07;27.70;;;-2.20;99.90;;;;;;5089538;28;20047;-70
2021/01/11 00:18:56;;;;;;;147.33;26.33;;;-2.20;99.90;;;;;;5090155;28;20056;-70
2021/01/11 00:21:22;;;;;;;99.30;26.97;;;-2.20;99.90;;;;;;5086996;28;20052;-70
2021/01/11 00:23:50;;;;;;;123.47;26.43;;;-2.10;99.90;;;;;;5090121;28;20048;-69
2021/01/11 00:26:17;;;;;;;141.13;27.57;;;-2.20;99.90;;;;;;5089365;28;20052;-69
2021/01/11 00:28:44;;;;;;;124.30;26.23;;;-2.20;99.90;;;;;;5088750;28;20052;-69
2021/01/11 00:31:11;;;;;;;141.73;28.23;;;-2.10;99.90;;;;;;5088541;28;20044;-70
2021/01/11 00:33:38;;;;;;;194.90;32.73;;;-2.20;99.90;;;;;;5085958;28;20044;-69
2021/01/11 00:36:05;;;;;;;155.23;28.80;;;-2.20;99.90;;;;;;5087605;28;20040;-69
2021/01/11 00:38:32;;;;;;;196.73;26.50;;;-2.20;99.90;;;;;;5080159;28;20040;-69
2021/01/11 00:40:59;;;;;;;148.30;28.40;;;-2.30;99.90;;;;;;5076029;28;20094;-70
2021/01/11 00:43:26;;;;;;;312.33;43.17;;;-2.30;99.90;;;;;;5078424;28;20507;-69
2021/01/11 00:45:52;;;;;;;152.30;29.30;;;-2.20;99.90;;;;;;5084911;28;20048;-70
2021/01/11 00:48:19;;;;;;;116.33;25.60;;;-2.20;99.90;;;;;;5084768;28;20051;-69
2021/01/11 00:50:46;;;;;;;71.30;23.53;;;-2.20;99.90;;;;;;5082925;28;20051;-69
2021/01/11 00:53:12;;;;;;;115.63;24.53;;;-2.30;99.90;;;;;;5082948;28;20056;-70
2021/01/11 00:55:42;;;;;;;250.93;37.23;;;-2.20;99.90;;;;;;5083249;28;20053;-69
2021/01/11 00:58:09;;;;;;;155.43;27.97;;;-2.40;99.90;;;;;;5086663;28;20735;-69
2021/01/11 01:00:36;;;;;;;140.90;26.90;;;-2.50;99.90;;;;;;5085793;28;20058;-69
2021/01/11 01:03:02;;;;;;;150.37;29.90;;;-2.50;99.90;;;;;;5086294;28;20051;-69
2021/01/11 01:05:29;;;;;;;134.93;29.23;;;-2.40;99.90;;;;;;5087187;28;20055;-69
2021/01/11 01:07:55;;;;;;;111.63;25.33;;;-2.20;99.90;;;;;;5086624;28;20044;-70
2021/01/11 01:10:22;;;;;;;129.43;29.30;;;-2.10;99.90;;;;;;5082995;28;20172;-70
2021/01/11 01:12:48;;;;;;;112.67;28.80;;;-2.20;99.90;;;;;;5084220;28;20465;-69
2021/01/11 01:15:16;;;;;;;122.43;27.07;;;-2.20;99.90;;;;;;5085525;28;20059;-70
2021/01/11 01:17:42;;;;;;;141.03;27.93;;;-2.20;99.90;;;;;;5078242;28;20040;-70
2021/01/11 01:20:15;;;;;;;211.00;32.37;;;-2.30;99.90;;;;;;5078660;28;20060;-70
2021/01/11 01:22:43;;;;;;;148.47;27.67;;;-2.20;99.90;;;;;;5083459;28;20090;-70
2021/01/11 01:25:12;;;;;;;156.13;30.03;;;-2.20;99.90;;;;;;5085923;28;20323;-70
2021/01/11 01:27:38;;;;;;;166.77;28.90;;;-2.20;99.90;;;;;;5080893;28;21313;-69
2021/01/11 01:30:06;;;;;;;124.07;25.37;;;-2.30;99.90;;;;;;5082301;28;20051;-70
2021/01/11 01:32:33;;;;;;;173.77;29.37;;;-2.20;99.90;;;;;;5085581;28;20514;-70
2021/01/11 01:35:00;;;;;;;195.10;28.87;;;-2.40;99.90;;;;;;5085142;28;20051;-70
2021/01/11 01:37:26;;;;;;;263.33;34.40;;;-2.30;99.90;;;;;;5086008;28;20047;-69
2021/01/11 01:39:53;;;;;;;164.20;28.03;;;-2.40;99.90;;;;;;5082479;28;20044;-70
2021/01/11 01:42:19;;;;;;;172.30;27.27;;;-2.50;99.90;;;;;;5085053;28;20770;-70
2021/01/11 01:44:46;;;;;;;191.07;29.67;;;-2.50;99.90;;;;;;5085485;28;20051;-70
2021/01/11 01:47:13;;;;;;;277.97;33.40;;;-2.50;99.90;;;;;;5081745;28;20496;-70
2021/01/11 01:49:41;;;;;;;128.30;27.00;;;-2.50;99.90;;;;;;5082991;28;20659;-70
2021/01/11 01:52:09;;;;;;;207.50;33.13;;;-2.40;99.90;;;;;;5083350;28;20051;-70
2021/01/11 01:54:36;;;;;;;126.20;28.20;;;-2.40;99.90;;;;;;5084766;28;20132;-70
2021/01/11 01:57:03;;;;;;;80.10;23.90;;;-2.40;99.90;;;;;;5080937;28;20544;-70
2021/01/11 01:59:29;;;;;;;95.37;24.03;;;-2.40;99.90;;;;;;5082907;28;20048;-69
2021/01/11 02:01:59;;;;;;;93.80;25.37;;;-2.30;99.90;;;;;;5084649;28;20052;-70
2021/01/11 02:04:26;;;;;;;86.30;23.40;;;-2.30;99.90;;;;;;5084123;28;20500;-69
2021/01/11 02:06:58;;;;;;;101.43;23.03;;;-2.40;99.90;;;;;;5080772;28;20040;-70
2021/01/11 02:09:38;;;;;;;122.60;24.67;;;-2.40;99.90;;;;;;5081119;28;20047;-70
2021/01/11 02:12:09;;;;;;;91.23;23.93;;;-2.20;99.90;;;;;;5080967;28;20503;-70
2021/01/11 02:14:49;;;;;;;78.90;22.60;;;-2.30;99.90;;;;;;5083066;28;20101;-69
2021/01/11 02:17:19;;;;;;;88.20;22.13;;;-2.20;99.90;;;;;;5082935;28;20494;-69
2021/01/11 02:20:22;;;;;;;193.83;29.03;;;-2.20;99.90;;;;;;5082809;28;20073;-70
2021/01/11 02:23:07;;;;;;;116.00;25.80;;;-2.30;99.90;;;;;;5081537;28;20044;-69
2021/01/11 02:25:42;;;;;;;377.27;40.20;;;-2.30;99.90;;;;;;5081468;28;20051;-69
2021/01/11 02:28:36;;;;;;;104.73;23.77;;;-2.70;99.90;;;;;;5084035;28;20070;-70
2021/01/11 02:31:06;;;;;;;155.63;25.07;;;-2.70;99.90;;;;;;5082704;28;20333;-69
2021/01/11 02:33:34;;;;;;;251.97;30.67;;;-2.60;99.90;;;;;;5083387;28;20412;-69
2021/01/11 02:36:03;;;;;;;273.73;33.07;;;-2.60;99.90;;;;;;5084010;28;20043;-70
2021/01/11 02:38:30;;;;;;;96.10;23.33;;;-3.00;99.90;;;;;;5080588;28;20051;-69
2021/01/11 02:40:57;;;;;;;201.93;27.97;;;-2.70;99.90;;;;;;5083588;28;20116;-69
2021/01/11 02:43:24;;;;;;;141.47;26.07;;;-2.70;99.90;;;;;;5083326;28;20052;-69
2021/01/11 02:45:50;;;;;;;166.03;27.37;;;-2.60;99.90;;;;;;5084501;28;20415;-69
2021/01/11 02:48:22;;;;;;;104.60;26.57;;;-2.60;99.90;;;;;;5083033;28;20048;-70
2021/01/11 02:50:55;;;;;;;140.47;25.77;;;-2.60;99.90;;;;;;5083506;28;20063;-69
2021/01/11 02:53:33;;;;;;;151.53;28.60;;;-2.70;99.90;;;;;;5084212;28;20105;-70
2021/01/11 02:56:03;;;;;;;125.27;29.03;;;-2.70;99.90;;;;;;5083711;28;20051;-69
2021/01/11 02:58:53;;;;;;;126.87;26.23;;;-2.70;99.90;;;;;;5084533;28;20044;-69
2021/01/11 03:01:22;;;;;;;116.67;28.63;;;-2.80;99.90;;;;;;5081163;28;20062;-69
2021/01/11 03:03:52;;;;;;;135.07;27.77;;;-2.70;99.90;;;;;;5068248;28;20056;-70
2021/01/11 03:06:19;;;;;;;100.30;26.77;;;-2.70;99.90;;;;;;5068179;28;20059;-69
2021/01/11 03:08:45;;;;;;;127.27;29.27;;;-2.70;99.90;;;;;;5071666;28;20044;-70
2021/01/11 03:11:12;;;;;;;142.70;29.60;;;-2.50;99.90;;;;;;5086555;28;20499;-70
2021/01/11 03:13:38;;;;;;;102.27;26.17;;;-2.50;99.90;;;;;;5087576;28;20052;-69
2021/01/11 03:16:05;;;;;;;120.70;28.97;;;-2.50;99.90;;;;;;5087963;28;20485;-70
2021/01/11 03:18:32;;;;;;;84.93;25.20;;;-2.50;99.90;;;;;;5087776;28;20098;-70
2021/01/11 03:20:59;;;;;;;65.60;22.57;;;-2.20;99.90;;;;;;5087677;28;20055;-70
2021/01/11 03:23:26;;;;;;;72.27;24.47;;;-2.10;99.90;;;;;;5087840;28;20059;-70
2021/01/11 03:25:53;;;;;;;70.33;22.27;;;-2.10;99.90;;;;;;5086442;28;20048;-70
2021/01/11 03:28:19;;;;;;;72.20;23.07;;;-2.20;99.90;;;;;;5086213;28;20044;-70
2021/01/11 03:30:46;;;;;;;75.90;22.70;;;-2.20;99.90;;;;;;5086169;28;20408;-70
2021/01/11 03:33:12;;;;;;;74.57;22.30;;;-2.30;99.90;;;;;;5086170;28;20056;-70
2021/01/11 03:35:39;;;;;;;83.87;24.37;;;-2.30;99.90;;;;;;5087704;28;20466;-69
2021/01/11 03:38:06;;;;;;;81.00;22.80;;;-2.30;99.90;;;;;;5088504;28;20044;-70
2021/01/11 03:40:33;;;;;;;84.87;22.33;;;-2.40;99.90;;;;;;5086713;28;20640;-69
2021/01/11 03:42:59;;;;;;;100.07;26.13;;;-2.40;99.90;;;;;;5088146;28;20480;-69
2021/01/11 03:45:26;;;;;;;74.23;22.90;;;-2.40;99.90;;;;;;5088040;28;20484;-70
2021/01/11 03:47:53;;;;;;;135.00;27.60;;;-2.40;99.90;;;;;;5087346;28;20052;-69
2021/01/11 03:50:19;;;;;;;114.07;24.60;;;-2.40;99.90;;;;;;5085678;28;20411;-69
2021/01/11 03:52:46;;;;;;;62.73;21.43;;;-2.50;99.90;;;;;;5088154;28;20401;-69
2021/01/11 03:55:13;;;;;;;61.30;19.93;;;-2.50;99.90;;;;;;5087445;28;20051;-70
2021/01/11 03:57:40;;;;;;;58.37;21.07;;;-2.50;99.90;;;;;;5087666;28;20040;-70
2021/01/11 04:00:09;;;;;;;50.87;18.80;;;-2.50;99.90;;;;;;5087271;28;20052;-69
2021/01/11 04:02:35;;;;;;;62.27;23.27;;;-2.60;99.90;;;;;;5087087;28;20048;-70
2021/01/11 04:05:02;;;;;;;64.03;23.63;;;-2.50;99.90;;;;;;5088439;28;20055;-69
2021/01/11 04:07:28;;;;;;;57.97;20.60;;;-2.50;99.90;;;;;;5084874;28;20111;-69
2021/01/11 04:09:55;;;;;;;57.60;21.40;;;-2.50;99.90;;;;;;5086529;28;20503;-69
2021/01/11 04:12:22;;;;;;;88.50;21.77;;;-2.50;99.90;;;;;;5087376;28;20056;-70
2021/01/11 04:14:49;;;;;;;58.03;22.33;;;-2.60;99.90;;;;;;5084024;28;20040;-70
2021/01/11 04:17:17;;;;;;;55.43;20.43;;;-2.70;99.90;;;;;;5086611;28;20052;-70
2021/01/11 04:19:43;;;;;;;63.67;21.23;;;-2.70;99.90;;;;;;5085010;28;20117;-70
2021/01/11 04:22:10;;;;;;;66.13;23.30;;;-2.60;99.90;;;;;;5087173;28;20047;-69
2021/01/11 04:24:37;;;;;;;72.33;23.73;;;-2.60;99.90;;;;;;5086834;28;20054;-70
2021/01/11 04:27:04;;;;;;;66.40;24.03;;;-2.40;99.90;;;;;;5087598;28;20060;-70
2021/01/11 04:29:31;;;;;;;76.33;26.23;;;-2.40;99.90;;;;;;5086172;28;20044;-70
2021/01/11 04:31:58;;;;;;;69.97;25.17;;;-2.40;99.90;;;;;;5087854;28;20063;-70
2021/01/11 04:34:24;;;;;;;72.90;22.37;;;-2.40;99.90;;;;;;5087372;28;20048;-70
2021/01/11 04:36:51;;;;;;;67.73;21.70;;;-2.50;99.90;;;;;;5087116;28;20101;-70
2021/01/11 04:39:18;;;;;;;53.73;18.50;;;-2.60;99.90;;;;;;5086979;28;20055;-70
2021/01/11 04:41:46;;;;;;;90.27;20.43;;;-2.50;99.90;;;;;;5086411;28;20063;-70
2021/01/11 04:44:15;;;;;;;80.77;19.23;;;-2.40;99.90;;;;;;5087447;28;20048;-70
2021/01/11 04:46:44;;;;;;;124.67;24.70;;;-2.60;99.90;;;;;;5086986;28;20397;-70
2021/01/11 04:49:13;;;;;;;131.57;26.20;;;-2.40;99.90;;;;;;5083639;28;20530;-70
2021/01/11 04:51:40;;;;;;;89.10;20.43;;;-2.70;99.90;;;;;;5085452;28;20409;-70
2021/01/11 04:54:08;;;;;;;71.30;20.50;;;-2.50;99.90;;;;;;5157431;22;20478;-69
2021/01/11 04:56:40;;;;;;;74.97;17.57;;;-2.50;99.90;;;;;;5088194;28;20075;-68
2021/01/11 04:59:08;;;;;;;47.97;15.97;;;-2.60;99.90;;;;;;5087478;28;20044;-69
2021/01/11 05:01:35;;;;;;;48.63;17.27;;;-2.70;99.90;;;;;;5086583;28;20044;-68
2021/01/11 05:04:03;;;;;;;63.67;16.53;;;-2.60;99.90;;;;;;5086487;28;20052;-69
2021/01/11 05:06:30;;;;;;;128.63;19.93;;;-2.70;99.90;;;;;;5087092;28;20052;-69
2021/01/11 05:09:05;;;;;;;73.70;17.33;;;-2.80;99.90;;;;;;5085928;28;20055;-68
2021/01/11 05:11:32;;;;;;;46.90;16.53;;;-2.90;99.90;;;;;;5086409;28;20052;-68
2021/01/11 05:13:58;;;;;;;52.30;17.70;;;-2.80;99.90;;;;;;5069104;28;20052;-69
2021/01/11 05:16:25;;;;;;;90.50;19.03;;;-3.00;99.90;;;;;;5066084;28;20051;-69
2021/01/11 05:18:56;;;;;;;97.50;22.03;;;-3.00;99.90;;;;;;5065484;28;20496;-69
2021/01/11 05:21:44;;;;;;;51.17;15.47;;;-2.90;99.90;;;;;;5064675;28;20503;-69
2021/01/11 05:24:31;;;;;;;85.73;19.83;;;-3.00;99.90;;;;;;5065583;28;20048;-69
2021/01/11 05:26:59;;;;;;;49.45;16.08;;;-3.10;99.90;;;;;;5065326;28;20110;-69
2021/01/11 05:29:25;;;;;;;76.67;19.07;;;-3.20;99.90;;;;;;5065896;28;20128;-69
2021/01/11 05:31:54;;;;;;;57.83;16.93;;;-3.10;99.90;;;;;;5065143;28;20063;-69
2021/01/11 05:34:22;;;;;;;55.57;17.30;;;-2.90;99.90;;;;;;5066764;28;20048;-69
2021/01/11 05:36:50;;;;;;;78.00;18.50;;;-3.10;99.90;;;;;;5066661;28;20251;-69
2021/01/11 05:39:17;;;;;;;37.37;15.90;;;-2.90;99.90;;;;;;5068078;28;20550;-69
2021/01/11 05:41:44;;;;;;;54.50;16.20;;;-2.90;99.90;;;;;;5068178;28;20131;-68
2021/01/11 05:44:12;;;;;;;41.87;15.70;;;-3.00;99.90;;;;;;5067639;28;20056;-69
2021/01/11 05:46:40;;;;;;;51.57;17.00;;;-3.10;99.90;;;;;;5066394;28;20489;-69
2021/01/11 05:49:08;;;;;;;51.03;15.93;;;-3.00;99.90;;;;;;5080045;28;20062;-68
2021/01/11 05:51:35;;;;;;;48.63;16.90;;;-2.90;99.90;;;;;;5084926;28;20059;-68
2021/01/11 05:54:04;;;;;;;45.90;16.70;;;-3.00;99.90;;;;;;5086128;28;20108;-68
2021/01/11 05:56:51;;;;;;;58.47;17.37;;;-3.00;99.90;;;;;;5086348;28;20054;-69
2021/01/11 05:59:18;;;;;;;47.27;15.20;;;-3.30;99.90;;;;;;5075536;28;20075;-68
2021/01/11 06:01:44;;;;;;;43.07;17.03;;;-3.30;99.90;;;;;;5062598;28;20408;-69
2021/01/11 06:04:11;;;;;;;82.17;17.60;;;-3.40;99.90;;;;;;5076141;28;20063;-68
2021/01/11 06:06:39;;;;;;;43.97;15.37;;;-3.50;99.90;;;;;;5056039;28;20043;-68
2021/01/11 06:09:07;;;;;;;58.13;17.00;;;-3.30;99.90;;;;;;5062059;28;20051;-69
2021/01/11 06:11:36;;;;;;;36.43;14.57;;;-3.40;99.90;;;;;;5062314;28;20171;-69
2021/01/11 06:14:05;;;;;;;62.30;16.47;;;-3.20;99.90;;;;;;5064010;28;20052;-69
2021/01/11 06:16:32;;;;;;;47.13;15.33;;;-3.40;99.90;;;;;;5063136;28;20589;-69
2021/01/11 06:18:59;;;;;;;42.03;14.87;;;-3.50;99.90;;;;;;5063360;28;20052;-69
2021/01/11 06:21:26;;;;;;;52.83;17.17;;;-3.60;99.90;;;;;;5061707;28;20451;-70
2021/01/11 06:24:21;;;;;;;55.67;15.63;;;-3.50;99.90;;;;;;5063756;28;20052;-69
2021/01/11 06:26:48;;;;;;;44.93;16.80;;;-3.50;99.90;;;;;;5027444;28;20045;-69
2021/01/11 06:29:30;;;;;;;52.20;15.50;;;-3.50;99.90;;;;;;5063511;28;20090;-69
2021/01/11 06:31:58;;;;;;;44.70;16.63;;;-3.50;99.90;;;;;;5061490;28;20053;-70
2021/01/11 06:34:35;;;;;;;50.07;17.40;;;-3.50;99.90;;;;;;5063519;28;20064;-69
2021/01/11 06:37:02;;;;;;;;;;;-3.40;99.90;;;;;;5063163;28;20433;-69
2021/01/11 06:39:32;;;;;;;39.90;15.45;;;-3.40;99.90;;;;;;5062304;28;20277;-70
2021/01/11 06:42:10;;;;;;;44.90;16.83;;;-3.30;99.90;;;;;;5063373;28;20048;-70
2021/01/11 06:44:38;;;;;;;40.17;16.47;;;-3.30;99.90;;;;;;5063228;28;20052;-70
2021/01/11 06:47:08;;;;;;;62.33;17.57;;;-3.10;99.90;;;;;;5063840;28;20060;-70
2021/01/11 06:49:36;;;;;;;47.17;16.40;;;-3.00;99.90;;;;;;5060614;28;20510;-69
2021/01/11 06:52:05;;;;;;;58.93;17.23;;;-3.10;99.90;;;;;;5063763;28;20053;-69
2021/01/11 06:54:43;;;;;;;47.33;17.73;;;-3.20;99.90;;;;;;5063194;28;20053;-70
2021/01/11 06:57:13;;;;;;;45.40;16.43;;;-3.10;99.90;;;;;;5064131;28;20063;-70
2021/01/11 06:59:40;;;;;;;61.17;19.20;;;-3.10;99.90;;;;;;5061925;28;20226;-70
2021/01/11 07:02:22;;;;;;;51.63;16.77;;;-3.10;99.90;;;;;;5064194;28;20044;-70
2021/01/11 07:04:49;;;;;;;42.50;15.93;;;-3.10;99.90;;;;;;5063231;28;20060;-69
2021/01/11 07:07:21;;;;;;;38.77;16.03;;;-3.00;99.90;;;;;;5063131;28;20041;-70
2021/01/11 07:09:56;;;;;;;44.33;15.70;;;-3.10;99.90;;;;;;5061727;28;20048;-69
2021/01/11 07:12:23;;;;;;;43.77;17.10;;;-3.30;99.90;;;;;;5062515;28;20052;-70
2021/01/11 07:15:01;;;;;;;42.67;16.37;;;-3.20;99.90;;;;;;5063736;28;20052;-69
2021/01/11 07:17:41;;;;;;;49.80;18.73;;;-3.30;99.90;;;;;;5078727;28;20051;-70
2021/01/11 07:20:09;;;;;;;51.50;17.90;;;-3.40;99.90;;;;;;5081865;28;20054;-70
2021/01/11 07:22:38;;;;;;;53.77;17.93;;;-3.20;99.90;;;;;;5065971;28;20056;-69
2021/01/11 07:25:24;;;;;;;48.63;18.27;;;-3.20;99.90;;;;;;5064341;28;20106;-70
2021/01/11 07:27:55;;;;;;;48.07;18.10;;;-3.10;99.90;;;;;;5069737;28;20646;-69
2021/01/11 07:30:22;;;;;;;45.47;17.87;;;-3.20;99.90;;;;;;5062625;28;20076;-70
2021/01/11 07:32:49;;;;;;;46.20;17.93;;;-3.00;99.90;;;;;;5066309;28;20078;-70
2021/01/11 07:35:15;;;;;;;48.13;18.10;;;-3.00;99.90;;;;;;5073883;28;20059;-70
2021/01/11 07:37:42;;;;;;;46.53;18.13;;;-3.00;99.90;;;;;;5083891;28;20048;-70
2021/01/11 07:40:10;;;;;;;47.43;18.37;;;-2.90;99.90;;;;;;5073377;28;20050;-70
2021/01/11 07:42:38;;;;;;;45.10;16.90;;;-2.80;99.90;;;;;;5082210;28;20051;-70
2021/01/11 07:45:07;;;;;;;47.77;18.50;;;-2.90;99.90;;;;;;5083075;28;20055;-70
2021/01/11 07:47:34;;;;;;;44.13;17.03;;;-3.10;99.90;;;;;;5082625;28;20040;-70
2021/01/11 07:50:00;;;;;;;50.27;16.80;;;-3.00;99.90;;;;;;5084919;28;20492;-70
2021/01/11 07:52:29;;;;;;;50.73;18.63;;;-3.10;99.90;;;;;;5087501;28;20048;-69
2021/01/11 07:54:59;;;;;;;49.47;17.83;;;-3.10;99.90;;;;;;5087230;28;20063;-70
2021/01/11 07:57:27;;;;;;;48.90;17.53;;;-3.00;99.90;;;;;;5086141;28;20094;-70
2021/01/11 08:00:04;;;;;;;47.07;17.60;;;-3.00;99.90;;;;;;5085667;28;20048;-69
2021/01/11 08:02:32;;;;;;;44.97;18.73;;;-3.00;99.90;;;;;;5070502;28;20059;-69
2021/01/11 08:04:58;;;;;;;48.10;18.37;;;-2.90;99.90;;;;;;5086384;28;20054;-70
2021/01/11 08:07:29;;;;;;;44.17;17.10;;;-2.90;99.90;;;;;;5067540;28;20508;-70
2021/01/11 08:09:57;;;;;;;47.87;18.03;;;-2.80;99.90;;;;;;5065019;28;20140;-70
2021/01/11 08:12:26;;;;;;;48.27;19.10;;;-2.50;99.90;;;;;;5064664;28;20052;-70
2021/01/11 08:15:01;;;;;;;51.27;19.07;;;-2.60;99.90;;;;;;5076279;28;20055;-70
2021/01/11 08:17:30;;;;;;;46.40;18.77;;;-2.70;99.90;;;;;;5067601;28;20496;-70
2021/01/11 08:19:58;;;;;;;41.93;17.47;;;-2.70;99.90;;;;;;5084506;28;20058;-70
2021/01/11 08:22:26;;;;;;;45.23;16.87;;;-2.60;99.90;;;;;;5085383;28;20645;-71
2021/01/11 08:24:54;;;;;;;41.57;16.83;;;-2.50;99.90;;;;;;5085448;28;20044;-67
2021/01/11 08:27:26;;;;;;;42.93;17.13;;;-2.60;99.90;;;;;;5082822;28;20054;-68
2021/01/11 08:29:53;;;;;;;45.30;17.87;;;-2.80;99.90;;;;;;5064295;28;20052;-68
2021/01/11 08:32:22;;;;;;;40.13;15.97;;;-2.80;99.90;;;;;;5075986;28;20052;-68
2021/01/11 08:35:00;;;;;;;46.37;17.67;;;-2.80;99.90;;;;;;5067339;28;20048;-69
2021/01/11 08:37:36;;;;;;;46.80;17.73;;;-2.80;99.90;;;;;;5072695;28;20506;-68
2021/01/11 08:40:08;;;;;;;49.50;17.10;;;-2.70;99.90;;;;;;5084193;28;20045;-69
2021/01/11 08:42:35;;;;;;;47.57;18.00;;;-2.70;99.90;;;;;;5073601;28;20398;-69
2021/01/11 08:45:24;;;;;;;41.80;16.63;;;-2.60;99.90;;;;;;5088082;28;20102;-68
2021/01/11 08:47:59;;;;;;;41.67;17.03;;;-2.50;99.90;;;;;;5069880;28;20056;-68
2021/01/11 08:50:26;;;;;;;43.23;17.10;;;-2.30;99.90;;;;;;5068861;28;20048;-71
2021/01/11 08:52:53;;;;;;;36.67;16.13;;;-2.40;99.90;;;;;;5073845;28;20055;-71
2021/01/11 08:55:21;;;;;;;47.63;17.70;;;-2.30;99.90;;;;;;5065896;28;20105;-72
2021/01/11 08:57:58;;;;;;;40.50;15.73;;;-2.30;99.90;;;;;;5066171;28;20052;-72
2021/01/11 09:00:25;;;;;;;44.70;17.97;;;-2.30;99.90;;;;;;5071393;28;20565;-70
2021/01/11 09:02:52;;;;;;;42.07;16.47;;;-2.30;99.90;;;;;;5078636;28;20384;-71
2021/01/11 09:05:23;;;;;;;49.63;18.37;;;-2.30;99.90;;;;;;5077025;28;20052;-71
2021/01/11 09:07:50;;;;;;;40.73;15.90;;;-2.30;99.90;;;;;;5070333;28;20160;-70
2021/01/11 09:10:24;;;;;;;40.57;16.53;;;-2.30;99.90;;;;;;5082403;28;20048;-72
2021/01/11 09:12:52;;;;;;;41.03;17.90;;;-2.40;99.90;;;;;;5076966;28;20508;-71
2021/01/11 09:15:26;;;;;;;42.23;16.93;;;-2.50;99.90;;;;;;5079024;28;20435;-72
2021/01/11 09:18:04;;;;;;;36.33;16.03;;;-2.30;99.90;;;;;;5069663;28;20416;-72
2021/01/11 09:20:35;;;;;;;42.53;15.93;;;-2.40;99.90;;;;;;5085118;28;20075;-71
2021/01/11 09:23:02;;;;;;;46.63;17.60;;;-2.40;99.90;;;;;;5074861;28;20044;-71
2021/01/11 09:25:29;;;;;;;39.87;16.20;;;-2.50;99.90;;;;;;5065725;28;20051;-71
2021/01/11 09:27:55;;;;;;;41.67;15.80;;;-2.40;99.90;;;;;;5082777;28;20062;-70
2021/01/11 09:30:22;;;;;;;39.30;14.80;;;-2.30;99.90;;;;;;5073689;28;20059;-72
2021/01/11 09:32:49;;;;;;;37.20;16.10;;;-2.30;99.90;;;;;;5074686;28;20040;-70
2021/01/11 09:35:16;;;;;;;40.47;15.23;;;-2.30;99.90;;;;;;5072502;28;20049;-71
2021/01/11 09:37:44;;;;;;;43.10;16.97;;;-2.40;99.90;;;;;;5079610;28;20045;-71
2021/01/11 09:40:11;;;;;;;40.70;15.93;;;-2.50;99.90;;;;;;5078734;28;20058;-73
2021/01/11 09:42:37;;;;;;;40.40;17.17;;;-2.60;99.90;;;;;;5081303;28;20048;-73
2021/01/11 09:45:06;;;;;;;39.50;14.43;;;-2.60;99.90;;;;;;5076886;28;20499;-70
2021/01/11 09:47:32;;;;;;;41.67;15.83;;;-2.60;99.90;;;;;;5074913;28;20044;-72
2021/01/11 09:49:59;;;;;;;41.47;16.97;;;-2.50;99.90;;;;;;5084243;28;20056;-73
2021/01/11 09:52:27;;;;;;;41.17;16.20;;;-2.30;99.90;;;;;;5070550;28;20051;-74
2021/01/11 09:54:59;;;;;;;45.13;16.03;;;-2.40;99.90;;;;;;5069301;28;20192;-74
2021/01/11 09:57:26;;;;;;;43.40;16.87;;;-2.40;99.90;;;;;;5074333;28;20058;-73
2021/01/11 09:59:52;;;;;;;39.07;15.80;;;-2.40;99.90;;;;;;5070655;28;20425;-73
2021/01/11 10:02:19;;;;;;;44.97;17.60;;;-2.30;99.90;;;;;;5076002;28;20052;-73
2021/01/11 10:04:45;;;;;;;46.37;17.97;;;-2.20;99.90;;;;;;5067041;28;20048;-71
2021/01/11 10:07:12;;;;;;;43.00;16.33;;;-2.20;99.90;;;;;;5070817;28;20056;-73
2021/01/11 10:09:40;;;;;;;45.13;18.30;;;-2.20;99.90;;;;;;5085503;28;20052;-72
2021/01/11 10:12:08;;;;;;;48.17;18.87;;;-2.20;99.90;;;;;;5079518;28;20058;-72
2021/01/11 10:14:34;;;;;;;45.87;18.17;;;-2.00;99.90;;;;;;5072298;28;20466;-73
2021/01/11 10:17:02;;;;;;;43.97;18.67;;;-1.90;99.90;;;;;;5069281;28;20047;-74
2021/01/11 10:19:29;;;;;;;46.40;18.87;;;-1.90;99.90;;;;;;5073528;28;20052;-73
2021/01/11 10:22:20;;;;;;;51.27;19.83;;;-1.90;99.90;;;;;;5068368;28;20056;-72
2021/01/11 10:24:50;;;;;;;48.90;19.30;;;-1.90;99.90;;;;;;5075348;28;20056;-72
2021/01/11 10:27:26;;;;;;;45.53;19.07;;;-1.80;99.90;;;;;;5069688;28;20055;-72
2021/01/11 10:29:53;;;;;;;38.72;15.98;;;-2.00;99.90;;;;;;5071869;28;20101;-74
2021/01/11 10:32:19;;;;;;;52.87;20.37;;;-2.00;99.90;;;;;;5071876;28;20048;-73
2021/01/11 10:34:46;;;;;;;48.60;19.63;;;-2.00;99.90;;;;;;5074611;28;20106;-73
2021/01/11 10:37:13;;;;;;;48.03;19.37;;;-2.00;99.90;;;;;;5082296;28;20057;-73
2021/01/11 10:39:40;;;;;;;49.77;21.00;;;-1.90;99.90;;;;;;5071791;28;20048;-74
2021/01/11 10:42:07;;;;;;;53.83;21.00;;;-1.90;99.90;;;;;;5078719;28;20388;-73
2021/01/11 10:44:35;;;;;;;50.50;19.60;;;-1.90;99.90;;;;;;5082656;28;20051;-70
2021/01/11 10:47:01;;;;;;;48.67;19.97;;;-1.80;99.90;;;;;;5083986;28;20496;-73
2021/01/11 10:49:29;;;;;;;55.13;21.77;;;-1.70;99.90;;;;;;5083514;28;20056;-72
2021/01/11 10:51:56;;;;;;;53.37;20.87;;;-1.60;99.90;;;;;;5074752;28;20098;-71
2021/01/11 10:54:23;;;;;;;50.00;21.10;;;-1.40;99.90;;;;;;5073416;28;20048;-72
2021/01/11 10:56:50;;;;;;;49.17;20.80;;;-1.40;99.90;;;;;;5071132;28;20324;-71
2021/01/11 10:59:17;;;;;;;50.47;21.23;;;-1.40;99.90;;;;;;5069692;28;20059;-71
2021/01/11 11:01:45;;;;;;;47.83;20.93;;;-1.30;99.90;;;;;;5079321;28;20573;-71
2021/01/11 11:04:11;;;;;;;53.63;22.17;;;-1.40;99.90;;;;;;5066312;28;20067;-72
2021/01/11 11:06:38;;;;;;;49.10;21.23;;;-1.30;99.90;;;;;;5073762;28;20051;-72
2021/01/11 11:09:05;;;;;;;48.30;20.77;;;-1.00;99.90;;;;;;5073494;28;20041;-73
2021/01/11 11:11:43;;;;;;;46.73;18.33;;;-1.10;99.90;;;;;;5080943;28;20060;-70
2021/01/11 11:14:10;;;;;;;47.20;19.77;;;-1.00;99.90;;;;;;5093078;28;20051;-70
2021/01/11 11:16:38;;;;;;;53.80;21.80;;;-1.20;99.90;;;;;;5072805;28;20044;-70
2021/01/11 11:19:06;;;;;;;48.53;20.60;;;-1.30;99.90;;;;;;5055326;28;20375;-70
2021/01/11 11:21:32;;;;;;;51.70;21.73;;;-1.20;99.90;;;;;;5068259;28;20049;-70
2021/01/11 11:23:59;;;;;;;50.97;20.97;;;-1.20;99.90;;;;;;5071354;28;20389;-70
2021/01/11 11:26:25;;;;;;;51.87;22.00;;;-1.50;99.90;;;;;;5078171;28;20057;-70
2021/01/11 11:28:52;;;;;;;51.47;21.07;;;-1.60;99.90;;;;;;5083237;28;20147;-71
2021/01/11 11:31:21;;;;;;;59.60;24.40;;;-1.60;99.90;;;;;;5067696;28;20535;-71
2021/01/11 11:33:47;;;;;;;53.67;21.57;;;-1.60;99.90;;;;;;5073790;28;20051;-70
2021/01/11 11:36:18;;;;;;;53.10;21.13;;;-1.60;99.90;;;;;;5078446;28;20058;-71
2021/01/11 11:38:45;;;;;;;53.70;22.10;;;-1.60;99.90;;;;;;5071717;28;20370;-70
2021/01/11 11:41:11;;;;;;;51.40;21.30;;;-1.40;99.90;;;;;;5075514;28;20044;-71
2021/01/11 11:43:38;;;;;;;55.10;23.77;;;-1.40;99.90;;;;;;5078578;28;20070;-71
2021/01/11 11:46:04;;;;;;;49.80;21.10;;;-1.30;99.90;;;;;;5100397;28;20060;-71
2021/01/11 11:48:31;;;;;;;51.80;21.07;;;-1.20;99.90;;;;;;5102633;28;20063;-71
2021/01/11 11:50:57;;;;;;;56.17;21.10;;;-1.40;99.90;;;;;;5102084;28;20273;-70
2021/01/11 11:53:25;;;;;;;51.50;21.23;;;-1.50;99.90;;;;;;5100056;28;20052;-70
2021/01/11 11:55:51;;;;;;;56.93;21.07;;;-1.50;99.90;;;;;;5103222;28;20052;-70
2021/01/11 11:58:18;;;;;;;51.37;21.33;;;-1.40;99.90;;;;;;5103101;28;20077;-70
2021/01/11 12:00:44;;;;;;;44.97;19.47;;;-1.30;99.90;;;;;;5102123;28;20117;-70
2021/01/11 12:03:11;;;;;;;50.80;20.57;;;-1.30;99.90;;;;;;5097012;28;20118;-70
2021/01/11 12:05:37;;;;;;;47.43;16.63;;;-1.40;99.90;;;;;;5083884;28;20044;-71
2021/01/11 12:08:11;;;;;;;49.93;20.23;;;-1.60;99.90;;;;;;5064217;28;20512;-70
2021/01/11 12:10:38;;;;;;;54.03;20.37;;;-1.70;99.90;;;;;;5076510;28;20055;-70
2021/01/11 12:13:05;;;;;;;56.90;21.30;;;-1.80;99.90;;;;;;5076555;28;20368;-70
2021/01/11 12:15:32;;;;;;;50.67;20.17;;;-1.50;99.90;;;;;;5068373;28;20328;-70
2021/01/11 12:17:58;;;;;;;56.07;20.67;;;-1.50;99.90;;;;;;5061066;28;20102;-70
2021/01/11 12:20:25;;;;;;;47.90;20.23;;;-1.70;99.90;;;;;;5063071;28;20504;-70
2021/01/11 12:22:52;;;;;;;55.17;20.47;;;-1.70;99.90;;;;;;5065936;28;20094;-70
2021/01/11 12:25:18;;;;;;;53.20;20.93;;;-1.60;99.90;;;;;;5069546;28;20060;-70
2021/01/11 12:27:46;;;;;;;52.83;20.23;;;-1.50;99.90;;;;;;5069440;28;20048;-70
2021/01/11 12:30:13;;;;;;;55.37;19.03;;;-1.60;99.90;;;;;;5078512;28;20117;-70
2021/01/11 12:32:40;;;;;;;58.80;22.63;;;-1.40;99.90;;;;;;5079396;28;20056;-70
2021/01/11 12:35:09;;;;;;;52.33;21.63;;;-1.30;99.90;;;;;;5076832;28;20105;-70